Terminal Aerodrome Forecast
Issued by NWS

Home | Current Version | Previous Version | Graphics & Text | Print | Product List | Glossary On
Versions: 1 2 3 4 5 6 7 8 9 10 11 12 13 14 15 16
000
FTUS43 KGRB 200603 AAA
TAFRHI
TAF AMD
KRHI 200603Z 2006/2106 05006KT 4SM BR OVC006
     FM201000 08005KT 2SM -FZRA BR OVC005
     FM201300 19003KT 2SM -FZRA BR OVC004
     FM202100 27006KT P6SM OVC006
     FM202300 30007KT P6SM BKN016
     FM210500 30008KT P6SM BKN020=

USA.gov is the U.S. government's official web portal to all federal, state and local government web resources and services.